Terminal Aerodrome Forecast
Issued by NWS Cleveland, OH

Home | Current Version | Previous Version | Graphics & Text | Print | Product List | Glossary Off
Versions: 1 2 3 4 5 6 7 8 9 10 11 12 13 14 15 16 17 18 19 20

000
FTUS41 KCLE 291900 AAB
TAFERI
TAF AMD
KERI 291955Z 2920/3018 19015G25KT 2SM -SN BKN020 OVC030
     FM292300 21017G27KT 3/4SM -SN BR BKN008 OVC025
     FM300400 24015G25KT 3SM -SN BKN008 OVC015
     FM300800 29012G23KT 2SM -SN OVC012
     FM301300 31012G22KT 2SM -SN OVC012=

USA.gov is the U.S. government's official web portal to all federal, state and local government web resources and services.